Charles B. Wheeler Downtown Airport
KMKC : now visible

Airfield :











YOU CAN JOIN US ON...

 
LOGIN :

Register | Disclaimer

   EN    FR    IT 

 









Legend :    VFR   Marginal VFR   IFR   Intensive IFR   Very Intensive IFR
Visi :
Ceiling :
>= 8 km
>= 3000ft
5 to 8 km
1000 to 3000 ft
1500m to 5 km
500 to 1000 ft
800 to 1500m
200 to 500 ft
< 800m
< 200 ft
Symbols :   Thunderstorms  Fog  Heavy snow  Heavy precipitations  Wind > 20 kt






- Airport Elevation : 759 ft
- IATA code : MKC


KMKC - Charles B. Wheeler Downtown

CURRENT METAR :
  • 092354Z 35017G25KT 10SM CLR 12/M08 A3004 RMK AO2 PK WND 30029/2314 SLP174 T01221083 10156 20122 53010

EXPIRED METARs :
  • 092254Z 32020G29KT 10SM CLR 14/M11 A3002 RMK AO2 PK WND 29032/2211 SLP166 T01391106
  • 092154Z 31017G29KT 10SM CLR 15/M09 A3001 RMK AO2 PK WND 30032/2118 SLP161 T01501089

TAF KMKC
Valid from the 10 at 00:00 until the 11 at 00:00 UTC


092320Z 1000/1024 34015G25KT P6SM SKC
FM100300 35008KT P6SM SKC
FM101500 21006KT P6SM SKC



MET'MAP, your aeronautical weather chart ! - Copyright ORBIFLY December 2007 - Disclaimer

ORBIFLY MET'MAP TEAM :

Programming & Development : Alexandra Zaïnal
Concept & original design : Baudouin d'Aumeries
Assistance for programming : Marc-Olivier Méhu
Technical & hardware support : Manuel Goepfert

Contact : metmap@orbifly.com




SOURCES & CREDITS :

   NOAA       Earth
Advisory